Time;durP1;ratioP1;P1;durP2;ratioP2;P2;SDS_P1;SDS_P2;PMS_P1;PMS_P2;Temp;Humidity;BMP_temperature;BMP_pressure;BME280_temperature;BME280_humidity;BME280_pressure;Samples;Min_cycle;Max_cycle;Signal;HPM_P1;HPM_P2
2023/04/15 04:31:36;;;;;;;;;2.50;2.50;;;;;10.10;81.69;100223.50;5084196;27;45436;-76
2023/04/15 04:34:01;;;;;;;;;3.00;3.00;;;;;10.03;81.37;100214.06;5093778;27;45394;-76
2023/04/15 04:36:27;;;;;;;;;4.50;4.50;;;;;10.03;81.85;100219.41;5080491;28;45663;-77
2023/04/15 04:38:52;;;;;;;;;4.00;3.00;;;;;9.95;81.13;100198.38;5080580;27;45343;-77
2023/04/15 04:41:17;;;;;;;;;1.00;1.00;;;;;10.06;81.67;100230.81;5080744;27;45297;-77
2023/04/15 04:43:43;;;;;;;;;3.00;3.00;;;;;10.09;82.08;100243.19;5083608;27;47078;-76
2023/04/15 04:46:09;;;;;;;;;5.00;3.00;;;;;10.05;81.55;100237.09;5083027;28;53393;-78
2023/04/15 04:48:34;;;;;;;;;1.00;1.00;;;;;10.11;81.42;100246.66;5081097;28;45254;-77
2023/04/15 04:51:00;;;;;;;;;1.00;1.00;;;;;10.12;81.78;100251.06;5078369;28;45405;-75
2023/04/15 04:53:26;;;;;;;;;1.00;1.00;;;;;10.12;82.23;100257.25;5077515;27;45490;-78
2023/04/15 04:55:52;;;;;;;;;0.50;0.25;;;;;9.99;81.60;100236.56;5091658;27;46234;-78
2023/04/15 04:58:17;;;;;;;;;1.00;1.00;;;;;10.13;81.94;100264.34;5097855;27;45389;-76
2023/04/15 05:00:43;;;;;;;;;1.00;1.00;;;;;10.18;81.55;100269.53;5097564;27;45883;-76
2023/04/15 05:03:08;;;;;;;;;0.00;0.00;;;;;10.18;81.13;100272.22;5079444;27;45480;-78
2023/04/15 05:05:35;;;;;;;;;0.75;0.75;;;;;10.02;81.21;100242.66;5075859;27;46099;-77
2023/04/15 05:08:01;;;;;;;;;0.75;0.00;;;;;10.15;80.54;100265.16;5097721;27;45317;-77
2023/04/15 05:10:26;;;;;;;;;0.00;0.00;;;;;10.22;81.01;100287.16;5098137;27;45361;-80
2023/04/15 05:12:51;;;;;;;;;0.00;0.00;;;;;10.23;81.72;100297.81;5097829;27;45266;-77
2023/04/15 05:15:17;;;;;;;;;0.00;0.00;;;;;10.26;81.40;100307.50;5098132;27;45887;-77
2023/04/15 05:17:42;;;;;;;;;1.00;1.00;;;;;10.26;81.92;100299.47;5097742;27;45428;-78
2023/04/15 05:20:08;;;;;;;;;2.25;1.00;;;;;10.35;81.69;100320.44;5097504;27;45449;-76
2023/04/15 05:22:34;;;;;;;;;1.25;1.00;;;;;10.30;80.93;100306.38;5097512;27;45566;-77
2023/04/15 05:24:59;;;;;;;;;1.00;1.00;;;;;10.26;81.32;100304.81;5097587;27;45741;-78
2023/04/15 05:27:24;;;;;;;;;0.75;0.75;;;;;10.37;81.63;100325.72;5097772;27;45330;-76
2023/04/15 05:29:50;;;;;;;;;1.00;1.00;;;;;10.30;81.55;100329.63;5079192;27;45444;-76
2023/04/15 05:32:16;;;;;;;;;1.00;1.00;;;;;10.27;81.21;100328.00;5083466;27;45569;-75
2023/04/15 05:34:41;;;;;;;;;0.00;0.00;;;;;10.27;81.81;100336.03;5084158;27;45403;-77
2023/04/15 05:37:07;;;;;;;;;1.00;1.00;;;;;10.35;81.26;100355.25;5078958;27;45257;-77
2023/04/15 05:39:32;;;;;;;;;0.00;0.00;;;;;10.29;81.45;100338.63;5078944;27;45430;-76
2023/04/15 05:41:58;;;;;;;;;1.00;1.00;;;;;10.38;81.17;100354.25;5097080;27;45283;-76
2023/04/15 05:44:24;;;;;;;;;0.25;0.25;;;;;10.27;81.21;100340.53;5097044;27;45814;-76
2023/04/15 05:46:49;;;;;;;;;0.00;0.00;;;;;10.21;81.43;100329.16;5097015;27;45392;-76
2023/04/15 05:49:15;;;;;;;;;1.00;1.00;;;;;10.41;81.73;100372.81;5097240;27;45380;-77
2023/04/15 05:51:40;;;;;;;;;1.00;1.00;;;;;10.43;81.64;100377.16;5096403;27;45563;-79
2023/04/15 05:54:05;;;;;;;;;0.00;0.00;;;;;10.44;81.21;100381.59;5096854;27;46064;-76
2023/04/15 05:56:31;;;;;;;;;0.00;0.00;;;;;10.46;81.05;100386.88;5097176;27;45360;-76
2023/04/15 05:58:56;;;;;;;;;0.50;0.50;;;;;10.29;80.97;100360.94;5097140;27;45466;-77
2023/04/15 06:01:22;;;;;;;;;0.00;0.00;;;;;10.30;80.63;100365.31;5097193;27;45301;-75
2023/04/15 06:03:47;;;;;;;;;0.75;0.00;;;;;10.40;80.59;100388.03;5097334;27;46049;-77
2023/04/15 06:06:14;;;;;;;;;0.00;0.00;;;;;10.42;81.17;100390.66;5096580;27;45298;-77
2023/04/15 06:08:39;;;;;;;;;0.00;0.00;;;;;10.52;80.73;100400.81;5097169;27;45335;-76
2023/04/15 06:11:04;;;;;;;;;0.50;0.00;;;;;10.54;80.02;100409.66;5078086;27;45345;-77
2023/04/15 06:13:30;;;;;;;;;1.00;1.00;;;;;10.51;79.54;100428.56;5096699;27;45976;-76
2023/04/15 06:15:55;;;;;;;;;0.00;0.00;;;;;10.45;79.90;100426.22;5096438;27;45448;-75
2023/04/15 06:18:21;;;;;;;;;0.00;0.00;;;;;10.51;80.02;100443.78;5097040;27;45361;-77
2023/04/15 06:20:46;;;;;;;;;0.00;0.00;;;;;10.40;80.23;100430.91;5077723;27;46730;-76
2023/04/15 06:23:11;;;;;;;;;0.00;0.00;;;;;10.48;79.83;100458.19;5096395;27;46212;-77
2023/04/15 06:25:37;;;;;;;;;0.00;0.00;;;;;10.46;80.14;100457.41;5096269;27;45339;-78
2023/04/15 06:28:02;;;;;;;;;0.50;0.50;;;;;10.51;80.01;100463.41;5078438;27;45623;-77
2023/04/15 06:30:27;;;;;;;;;0.25;0.25;;;;;10.56;79.73;100473.88;5091576;27;45625;-78
2023/04/15 06:32:54;;;;;;;;;0.00;0.00;;;;;10.55;80.41;100466.78;5081315;27;45352;-77
2023/04/15 06:35:20;;;;;;;;;0.00;0.00;;;;;10.47;80.21;100467.19;5095872;27;45307;-76
2023/04/15 06:37:45;;;;;;;;;0.00;0.00;;;;;10.53;80.93;100474.06;5096376;27;45352;-77
2023/04/15 06:40:11;;;;;;;;;0.25;0.00;;;;;10.69;80.84;100490.25;5096001;27;45432;-78
2023/04/15 06:42:37;;;;;;;;;0.75;0.75;;;;;10.60;79.89;100462.09;5096302;27;46007;-76
2023/04/15 06:45:03;;;;;;;;;0.00;0.00;;;;;10.86;78.87;100499.16;5096147;27;45438;-76
2023/04/15 06:47:30;;;;;;;;;0.00;0.00;;;;;10.84;79.85;100503.75;5096357;27;45298;-76
2023/04/15 06:49:55;;;;;;;;;0.00;0.00;;;;;10.85;78.92;100513.53;5095499;27;45351;-73
2023/04/15 06:52:20;;;;;;;;;0.75;0.75;;;;;10.89;79.36;100528.50;5096241;27;46429;-73
2023/04/15 06:54:45;;;;;;;;;1.00;1.00;;;;;10.86;79.54;100522.44;5095709;27;45462;-73
2023/04/15 06:57:11;;;;;;;;;0.00;0.00;;;;;10.97;79.11;100534.34;5096168;27;45328;-77
2023/04/15 06:59:36;;;;;;;;;0.00;0.00;;;;;10.90;78.78;100524.00;5095634;27;45245;-74
2023/04/15 07:02:02;;;;;;;;;0.00;0.00;;;;;10.91;78.71;100537.34;5095812;27;46482;-77
2023/04/15 07:04:27;;;;;;;;;0.00;0.00;;;;;10.99;79.60;100545.88;5095786;27;45272;-75
2023/04/15 07:06:54;;;;;;;;;0.00;0.00;;;;;10.97;77.96;100553.13;5095490;27;45447;-75
2023/04/15 07:09:20;;;;;;;;;0.00;0.00;;;;;10.88;78.68;100547.38;5095588;27;46197;-75
2023/04/15 07:11:45;;;;;;;;;0.00;0.00;;;;;10.81;79.11;100543.22;5094790;27;46081;-76
2023/04/15 07:14:11;;;;;;;;;0.00;0.00;;;;;10.87;79.12;100556.34;5095576;27;45392;-76
2023/04/15 07:16:36;;;;;;;;;1.00;1.00;;;;;10.70;78.93;100542.91;5095788;27;45364;-75
2023/04/15 07:19:01;;;;;;;;;0.00;0.00;;;;;10.86;79.05;100581.44;5073625;28;46711;-76
2023/04/15 07:21:27;;;;;;;;;0.00;0.00;;;;;10.74;79.44;100577.53;5076402;28;45930;-74
2023/04/15 07:23:52;;;;;;;;;0.00;0.00;;;;;10.75;80.46;100584.63;5075677;27;45358;-78
2023/04/15 07:26:17;;;;;;;;;0.00;0.00;;;;;10.73;79.90;100591.00;5076051;28;45371;-78
2023/04/15 07:28:45;;;;;;;;;1.00;1.00;;;;;10.74;80.72;100601.66;5075003;27;45556;-78
2023/04/15 07:31:10;;;;;;;;;1.00;1.00;;;;;10.66;80.22;100573.50;5092456;27;46656;-79
2023/04/15 07:33:36;;;;;;;;;1.00;1.00;;;;;10.81;80.79;100611.16;5092070;27;45345;-77
2023/04/15 07:36:01;;;;;;;;;1.00;1.00;;;;;10.78;79.98;100595.22;5075465;28;45320;-78
2023/04/15 07:38:27;;;;;;;;;0.50;0.50;;;;;10.88;79.85;100612.59;5074933;28;45497;-76
2023/04/15 07:40:53;;;;;;;;;0.00;0.00;;;;;10.88;79.75;100630.50;5075037;28;45949;-75
2023/04/15 07:43:20;;;;;;;;;0.50;0.50;;;;;10.76;79.80;100607.84;5074733;28;45423;-77
2023/04/15 07:45:45;;;;;;;;;1.00;1.00;;;;;10.75;80.56;100611.47;5067136;27;45387;-76
2023/04/15 07:48:10;;;;;;;;;1.00;1.00;;;;;10.81;79.79;100629.91;5073265;28;46179;-76
2023/04/15 07:50:36;;;;;;;;;1.00;1.00;;;;;10.84;80.49;100640.50;5085050;27;46501;-77
2023/04/15 07:53:01;;;;;;;;;1.00;1.00;;;;;10.78;80.04;100629.22;5095206;27;45374;-71
2023/04/15 07:55:27;;;;;;;;;1.00;1.00;;;;;10.88;79.59;100654.66;5095115;27;45381;-75
2023/04/15 07:57:52;;;;;;;;;1.00;1.00;;;;;10.84;79.54;100659.28;5094916;27;45301;-72
2023/04/15 08:00:17;;;;;;;;;1.00;1.00;;;;;10.80;79.80;100655.00;5093576;27;57415;-83
2023/04/15 08:02:43;;;;;;;;;1.00;1.00;;;;;10.75;80.15;100650.81;5095096;27;45337;-83
2023/04/15 08:05:09;;;;;;;;;1.00;1.00;;;;;10.79;80.00;100664.00;5097780;27;45345;-86
2023/04/15 08:07:38;;;;;;;;;1.00;1.00;;;;;10.30;79.98;100570.75;5078468;27;45741;-83
2023/04/15 08:10:04;;;;;;;;;1.00;1.00;;;;;10.56;80.10;100614.16;5076919;27;47862;-85
2023/04/15 08:12:30;;;;;;;;;1.25;1.25;;;;;10.56;79.88;100614.16;5072830;28;45346;-74
2023/04/15 08:14:56;;;;;;;;;1.50;1.50;;;;;11.03;79.98;100694.13;5085377;27;45443;-71
2023/04/15 08:17:21;;;;;;;;;2.00;0.75;;;;;11.04;79.87;100697.69;5094554;27;45418;-70
2023/04/15 08:19:47;;;;;;;;;2.25;2.25;;;;;11.12;80.49;100708.91;5094581;27;46292;-71
2023/04/15 08:22:13;;;;;;;;;1.00;1.00;;;;;11.09;78.93;100696.50;5095611;27;45345;-72
2023/04/15 08:24:38;;;;;;;;;1.00;1.00;;;;;11.14;78.36;100713.28;5098657;27;45331;-72
2023/04/15 08:27:04;;;;;;;;;0.00;0.00;;;;;11.15;78.57;100731.09;5098929;27;45447;-71
2023/04/15 08:29:30;;;;;;;;;1.00;1.00;;;;;11.18;78.21;100728.25;5091126;27;45223;-72
2023/04/15 08:31:55;;;;;;;;;1.00;1.00;;;;;11.10;78.16;100711.66;5097023;27;45270;-70
2023/04/15 08:34:21;;;;;;;;;0.25;0.25;;;;;11.21;77.83;100737.97;5094866;27;45374;-75
2023/04/15 08:36:46;;;;;;;;;1.00;1.00;;;;;11.26;78.29;100747.53;5097898;27;45198;-71
2023/04/15 08:39:11;;;;;;;;;2.00;2.00;;;;;11.22;77.72;100731.69;5097196;27;45501;-71
2023/04/15 08:41:46;;;;;;;;;0.00;0.00;;;;;11.34;77.35;100753.41;5097692;27;45336;-73
2023/04/15 08:44:13;;;;;;;;;1.00;1.00;;;;;11.40;77.61;100751.38;5097114;27;45432;-73
2023/04/15 08:46:41;;;;;;;;;0.75;0.75;;;;;11.51;76.83;100754.38;5095984;27;45374;-72
2023/04/15 08:49:09;;;;;;;;;1.00;1.00;;;;;11.59;77.13;100758.44;5097842;27;46185;-70
2023/04/15 08:51:35;;;;;;;;;1.00;1.00;;;;;11.65;76.34;100768.84;5097500;27;45188;-71
2023/04/15 08:54:02;;;;;;;;;0.00;0.00;;;;;11.67;76.10;100766.09;5079378;27;45369;-72
2023/04/15 08:56:31;;;;;;;;;1.00;1.00;;;;;11.77;76.52;100779.97;5097681;27;45421;-73
2023/04/15 08:58:58;;;;;;;;;1.50;1.50;;;;;11.88;76.31;100778.50;5097704;27;45400;-72
2023/04/15 09:01:24;;;;;;;;;1.00;1.00;;;;;11.97;75.99;100794.16;5079111;27;45366;-71
2023/04/15 09:03:50;;;;;;;;;1.00;1.00;;;;;12.05;74.80;100791.06;5097862;27;45300;-72
2023/04/15 09:06:16;;;;;;;;;1.00;1.00;;;;;12.12;73.97;100801.44;5096882;27;45933;-71
2023/04/15 09:08:42;;;;;;;;;0.00;0.00;;;;;12.16;73.51;100809.34;5097671;27;45228;-73
2023/04/15 09:11:07;;;;;;;;;1.00;1.00;;;;;12.14;72.88;100801.34;5097647;27;45399;-72
2023/04/15 09:13:32;;;;;;;;;2.00;1.00;;;;;12.13;72.21;100807.66;5097279;27;45314;-71
2023/04/15 09:16:02;;;;;;;;;1.75;1.75;;;;;12.21;72.21;100823.41;5097289;27;45440;-72
2023/04/15 09:18:32;;;;;;;;;1.00;1.00;;;;;12.19;72.51;100826.16;5097724;27;45380;-72
2023/04/15 09:21:13;;;;;;;;;1.50;1.50;;;;;12.15;71.29;100835.34;5078455;27;45258;-71
2023/04/15 09:23:52;;;;;;;;;1.50;1.50;;;;;12.06;71.49;100835.81;5097504;27;45479;-73
2023/04/15 09:26:17;;;;;;;;;1.00;1.00;;;;;12.05;71.59;100850.19;5090217;27;45567;-73
2023/04/15 09:28:43;;;;;;;;;1.75;1.75;;;;;11.96;72.86;100856.03;5092324;27;46485;-74
2023/04/15 09:31:09;;;;;;;;;1.25;1.25;;;;;11.92;73.13;100857.09;5089700;27;45474;-72
2023/04/15 09:45:52;;;;;;;;;0.50;0.50;;;;;12.02;72.20;100894.19;5133814;27;45392;-65
2023/04/15 09:48:22;;;;;;;;;1.00;1.00;;;;;12.10;72.59;100893.81;5106726;27;45333;-63
2023/04/15 09:50:48;;;;;;;;;1.00;1.00;;;;;12.11;72.63;100895.56;5114568;27;45399;-65
2023/04/15 09:53:19;;;;;;;;;1.00;1.00;;;;;12.09;71.42;100894.75;5114517;27;45401;-65
2023/04/15 09:55:48;;;;;;;;;1.00;1.00;;;;;12.13;71.99;100915.16;5116336;27;45401;-66
2023/04/15 09:58:18;;;;;;;;;1.25;1.00;;;;;12.11;71.92;100912.56;5116858;27;45318;-65
2023/04/15 10:00:46;;;;;;;;;1.00;1.00;;;;;12.19;72.11;100928.28;5111897;27;45389;-64
2023/04/15 10:03:14;;;;;;;;;1.00;1.00;;;;;12.18;71.76;100913.13;5109595;27;45421;-65
2023/04/15 10:05:40;;;;;;;;;1.25;1.25;;;;;12.24;71.21;100926.28;5116073;27;45427;-65
2023/04/15 10:08:06;;;;;;;;;1.00;1.00;;;;;12.36;71.21;100928.31;5116655;27;45274;-65
2023/04/15 10:10:32;;;;;;;;;1.00;1.00;;;;;12.42;70.79;100938.75;5114753;27;45534;-66
2023/04/15 10:12:57;;;;;;;;;0.50;0.00;;;;;12.47;69.70;100936.72;5116092;27;45348;-65
2023/04/15 10:15:24;;;;;;;;;1.00;1.00;;;;;12.54;69.92;100956.09;5116398;27;45347;-64
2023/04/15 10:17:49;;;;;;;;;2.00;2.00;;;;;12.64;69.92;100956.53;5116243;27;45364;-65
2023/04/15 10:20:18;;;;;;;;;1.00;1.00;;;;;12.56;69.17;100940.78;5115969;27;45349;-66
2023/04/15 10:22:44;;;;;;;;;1.00;1.00;;;;;12.68;69.18;100952.69;5106352;27;45234;-67
2023/04/15 10:25:10;;;;;;;;;1.75;1.75;;;;;12.60;68.41;100944.16;5099668;27;45311;-66
2023/04/15 10:27:38;;;;;;;;;2.00;2.00;;;;;12.65;68.45;100940.31;5103863;27;45235;-67
2023/04/15 10:30:04;;;;;;;;;2.00;2.00;;;;;12.82;68.93;100961.84;5106785;27;45333;-63
2023/04/15 10:32:30;;;;;;;;;1.00;1.00;;;;;12.89;69.06;100968.63;5114636;27;45561;-67
2023/04/15 10:34:56;;;;;;;;;2.00;2.00;;;;;12.89;67.96;100962.38;5115093;27;45255;-67
2023/04/15 10:37:33;;;;;;;;;1.00;1.00;;;;;13.01;68.18;100983.28;5115814;27;45425;-66
2023/04/15 10:39:58;;;;;;;;;2.00;2.00;;;;;13.06;67.65;100981.22;5115671;27;45274;-67
2023/04/15 10:42:32;;;;;;;;;1.25;1.25;;;;;13.10;67.40;100982.78;5114430;27;47216;-67
2023/04/15 10:44:57;;;;;;;;;2.75;2.75;;;;;13.10;67.45;100979.25;5110765;27;46348;-66
2023/04/15 10:47:23;;;;;;;;;2.50;2.50;;;;;13.19;67.22;100992.22;5101764;27;51673;-67
2023/04/15 10:49:59;;;;;;;;;2.00;2.00;;;;;13.18;67.08;100982.44;5101847;27;45377;-67
2023/04/15 10:52:26;;;;;;;;;1.75;1.75;;;;;13.26;67.47;100988.28;5101772;27;45506;-66
2023/04/15 10:55:19;;;;;;;;;1.00;1.00;;;;;13.36;66.34;101004.78;5101342;27;46215;-65
2023/04/15 10:57:45;;;;;;;;;3.00;1.25;;;;;13.37;65.94;100996.63;5093380;27;45360;-64
2023/04/15 11:00:14;;;;;;;;;2.00;2.00;;;;;13.49;65.18;101000.50;5106870;27;45263;-64
2023/04/15 11:03:38;;;;;;;;;1.00;1.00;;;;;13.56;64.42;101013.56;5100067;27;45433;-64
2023/04/15 11:06:05;;;;;;;;;2.00;2.00;;;;;13.62;65.06;101007.81;5018063;28;46092;-63
2023/04/15 11:08:57;;;;;;;;;2.00;2.00;;;;;13.59;63.73;101015.22;5018342;28;45365;-65
2023/04/15 11:12:01;;;;;;;;;2.00;2.00;;;;;13.57;65.08;101025.19;5083438;27;45429;-64
2023/04/15 11:14:26;;;;;;;;;1.00;1.00;;;;;13.60;65.43;101023.22;5101604;27;45499;-66
2023/04/15 11:16:52;;;;;;;;;1.00;1.00;;;;;13.68;63.48;101036.28;5101320;27;46009;-65
2023/04/15 11:19:17;;;;;;;;;1.00;1.00;;;;;13.67;63.07;101036.34;5100675;27;45372;-64
2023/04/15 11:21:43;;;;;;;;;1.00;1.00;;;;;13.43;64.16;100995.44;5100335;27;45491;-64
2023/04/15 11:24:08;;;;;;;;;1.00;1.00;;;;;13.73;63.45;101028.81;5101157;27;45852;-66
2023/04/15 11:26:33;;;;;;;;;1.00;1.00;;;;;13.77;62.88;101043.88;5097246;27;45372;-62
2023/04/15 11:29:00;;;;;;;;;2.00;2.00;;;;;13.81;63.81;101047.25;5100947;27;45362;-69
2023/04/15 11:31:27;;;;;;;;;1.50;1.50;;;;;13.91;63.54;101046.66;5100940;27;45358;-71
2023/04/15 11:33:55;;;;;;;;;1.25;1.25;;;;;13.98;62.92;101045.38;5100615;27;45497;-70
2023/04/15 11:36:26;;;;;;;;;1.50;1.50;;;;;14.00;62.37;101051.56;5100644;27;45504;-70
2023/04/15 11:38:51;;;;;;;;;1.75;1.75;;;;;14.08;62.38;101061.03;5101062;27;45274;-72
2023/04/15 11:41:20;;;;;;;;;2.00;2.00;;;;;14.10;62.60;101067.22;5101081;27;45327;-73
2023/04/15 11:43:45;;;;;;;;;2.25;2.25;;;;;14.20;62.48;101073.84;5100645;27;46080;-70
2023/04/15 11:46:11;;;;;;;;;5.00;3.25;;;;;14.26;63.02;101071.69;5100499;27;46147;-66
2023/04/15 11:48:43;;;;;;;;;4.00;2.25;;;;;14.27;62.09;101065.34;5101053;27;45259;-65
2023/04/15 11:51:09;;;;;;;;;3.50;3.50;;;;;14.27;62.25;101075.25;5100630;27;45290;-67
2023/04/15 11:53:41;;;;;;;;;3.75;3.75;;;;;14.35;61.73;101087.34;5100953;27;45397;-67
2023/04/15 11:56:08;;;;;;;;;4.75;4.00;;;;;14.37;61.30;101092.66;5100167;27;45393;-65
2023/04/15 11:58:38;;;;;;;;;4.00;4.00;;;;;14.35;61.54;101100.84;5099796;27;45510;-64
2023/04/15 12:01:05;;;;;;;;;3.50;3.50;;;;;14.33;61.69;101097.34;5100685;27;45341;-65
2023/04/15 12:03:42;;;;;;;;;4.00;4.00;;;;;14.33;61.66;101099.16;5101047;27;45376;-66
2023/04/15 12:06:11;;;;;;;;;4.25;4.00;;;;;14.32;61.54;101110.91;5100120;27;46202;-66
2023/04/15 12:08:55;;;;;;;;;5.25;5.25;;;;;14.25;61.82;101113.09;5100997;27;45921;-65
2023/04/15 12:11:30;;;;;;;;;5.00;5.00;;;;;14.23;61.40;101114.13;5089027;27;45392;-67
2023/04/15 12:13:58;;;;;;;;;5.50;4.00;;;;;14.23;61.28;101123.06;5100294;27;45452;-64
2023/04/15 12:16:24;;;;;;;;;3.00;3.00;;;;;14.23;59.76;101133.88;5100619;27;46042;-66
2023/04/15 12:18:50;;;;;;;;;3.00;3.00;;;;;14.18;59.51;101138.66;5100393;27;45397;-64
2023/04/15 12:21:18;;;;;;;;;2.25;2.25;;;;;14.13;59.39;101137.13;5100611;27;45391;-65
2023/04/15 12:23:48;;;;;;;;;4.00;3.50;;;;;14.18;59.84;101140.47;5100444;27;45433;-63
2023/04/15 12:26:14;;;;;;;;;3.25;3.25;;;;;14.20;60.16;101146.66;5099106;27;47118;-62
2023/04/15 12:28:41;;;;;;;;;3.75;3.75;;;;;14.19;59.64;101148.50;5100109;27;45299;-66
2023/04/15 12:31:08;;;;;;;;;2.00;2.00;;;;;14.17;59.90;101150.38;5100648;27;45365;-63
2023/04/15 12:33:33;;;;;;;;;2.25;2.25;;;;;14.18;59.32;101154.84;5106291;27;45328;-63
2023/04/15 12:35:59;;;;;;;;;2.25;2.25;;;;;14.25;59.89;101160.75;5104950;27;46174;-62
2023/04/15 12:38:24;;;;;;;;;3.00;3.00;;;;;14.29;59.85;101162.34;5100378;27;45341;-63
2023/04/15 12:40:50;;;;;;;;;4.75;3.00;;;;;14.36;59.99;101167.31;5100016;27;45413;-65
2023/04/15 12:43:15;;;;;;;;;3.75;1.50;;;;;14.36;59.24;101155.66;5099759;27;45251;-65
2023/04/15 12:45:41;;;;;;;;;3.25;3.25;;;;;14.49;59.23;101177.44;5100199;27;45377;-65
2023/04/15 12:48:08;;;;;;;;;3.00;3.00;;;;;14.55;58.75;101177.09;5100302;27;45267;-65
2023/04/15 12:50:33;;;;;;;;;2.75;2.75;;;;;14.56;59.25;101181.53;5100365;27;45359;-59
2023/04/15 12:52:59;;;;;;;;;4.25;2.75;;;;;14.54;58.95;101176.25;5100024;27;45324;-58
2023/04/15 12:55:24;;;;;;;;;3.25;3.25;;;;;14.52;58.18;101190.78;5098371;27;47039;-58
2023/04/15 12:57:49;;;;;;;;;3.25;2.25;;;;;14.55;58.04;101199.56;5103697;27;50029;-65
2023/04/15 13:00:15;;;;;;;;;3.75;2.50;;;;;14.56;57.82;101212.09;5099747;27;54138;-67
2023/04/15 13:02:42;;;;;;;;;1.25;1.25;;;;;14.61;57.35;101207.34;5099371;27;45275;-68
2023/04/15 13:05:08;;;;;;;;;1.75;1.75;;;;;14.59;57.19;101208.38;5089001;27;45543;-69
2023/04/15 13:07:33;;;;;;;;;1.00;1.00;;;;;14.49;57.16;101213.41;5098090;27;46215;-68
2023/04/15 13:09:59;;;;;;;;;2.00;2.00;;;;;14.47;57.13;101209.03;5098045;27;45408;-68
2023/04/15 13:12:25;;;;;;;;;1.75;1.75;;;;;14.47;57.34;101223.38;5099119;27;45372;-70
2023/04/15 13:14:51;;;;;;;;;1.50;1.50;;;;;14.49;57.81;101226.00;5099068;27;45335;-68
2023/04/15 13:17:19;;;;;;;;;3.75;2.00;;;;;14.54;57.40;101232.91;5097328;27;45426;-68
2023/04/15 13:19:45;;;;;;;;;3.00;1.00;;;;;14.55;57.45;101248.13;5098030;27;45609;-68
2023/04/15 13:22:10;;;;;;;;;1.00;1.00;;;;;14.49;57.29;101253.00;5098661;27;45346;-70
2023/04/15 13:24:36;;;;;;;;;1.75;1.75;;;;;14.41;58.02;101266.03;5099064;27;46169;-68
2023/04/15 13:27:03;;;;;;;;;1.50;1.50;;;;;14.30;57.93;101244.97;5098618;27;45409;-69
2023/04/15 13:29:28;;;;;;;;;1.00;1.00;;;;;14.31;57.53;101254.81;5099191;27;45448;-66
2023/04/15 13:31:55;;;;;;;;;2.00;2.00;;;;;14.33;58.05;101274.50;5103038;27;45350;-67
2023/04/15 13:34:21;;;;;;;;;2.50;2.50;;;;;14.32;57.92;101272.75;5098113;27;46036;-68
2023/04/15 13:36:46;;;;;;;;;3.00;3.00;;;;;14.32;58.74;101279.00;5096982;27;45373;-66
2023/04/15 13:39:11;;;;;;;;;2.75;2.75;;;;;14.30;58.50;101267.41;5094988;27;45437;-68
2023/04/15 13:41:37;;;;;;;;;2.75;2.75;;;;;14.27;58.09;101259.50;5101473;27;52341;-67
2023/04/15 13:44:03;;;;;;;;;4.00;2.00;;;;;14.35;58.23;101286.06;5101362;27;45377;-66
2023/04/15 13:46:29;;;;;;;;;3.00;3.00;;;;;14.31;57.89;101285.34;5100633;27;45502;-67
2023/04/15 13:48:54;;;;;;;;;3.00;3.00;;;;;14.34;57.59;101301.38;5103649;27;45352;-69
2023/04/15 13:51:20;;;;;;;;;2.75;2.75;;;;;14.33;57.75;101305.03;5098953;27;45704;-68
2023/04/15 13:53:45;;;;;;;;;2.00;2.00;;;;;14.31;57.98;101293.44;5096829;27;48012;-67
2023/04/15 13:56:11;;;;;;;;;1.50;1.50;;;;;14.43;57.80;101304.59;5098535;27;45345;-66
2023/04/15 13:58:37;;;;;;;;;2.00;2.00;;;;;14.52;58.21;101321.16;5098823;27;45402;-68
2023/04/15 14:01:03;;;;;;;;;3.00;2.00;;;;;14.52;56.96;101296.00;5099131;27;45988;-67
2023/04/15 14:03:28;;;;;;;;;3.00;3.00;;;;;14.63;56.68;101320.59;5098913;27;45544;-67
2023/04/15 14:05:55;;;;;;;;;1.00;1.00;;;;;14.82;56.37;101325.84;5098348;27;54803;-67
2023/04/15 14:08:21;;;;;;;;;1.00;1.00;;;;;15.11;55.62;101327.84;5099088;27;45307;-69
2023/04/15 14:10:48;;;;;;;;;1.75;1.75;;;;;15.37;55.82;101332.66;5095857;27;45429;-67
2023/04/15 14:13:14;;;;;;;;;1.00;1.00;;;;;15.47;54.79;101312.28;5113324;27;47118;-67
2023/04/15 14:15:40;;;;;;;;;2.00;2.00;;;;;15.62;54.38;101323.19;5098745;27;45436;-70
2023/04/15 14:18:05;;;;;;;;;1.50;1.50;;;;;15.70;54.26;101327.19;5098934;27;45389;-68
2023/04/15 14:20:30;;;;;;;;;1.00;1.00;;;;;15.73;54.82;101334.25;5098068;27;46680;-67
2023/04/15 14:22:56;;;;;;;;;1.00;1.00;;;;;15.77;54.32;101338.50;5102502;27;45396;-66
2023/04/15 14:25:21;;;;;;;;;2.00;2.00;;;;;15.86;53.47;101337.97;5102025;27;45369;-66
2023/04/15 14:27:47;;;;;;;;;2.00;2.00;;;;;16.03;53.14;101343.28;5102215;27;45333;-69
2023/04/15 14:30:13;;;;;;;;;3.00;1.00;;;;;16.18;52.33;101349.59;5117781;27;46211;-67
2023/04/15 14:32:38;;;;;;;;;1.75;1.75;;;;;16.27;52.28;101358.03;5088373;27;45395;-68
2023/04/15 14:35:04;;;;;;;;;2.00;2.00;;;;;16.34;51.79;101347.72;5101477;27;45644;-66
2023/04/15 14:37:29;;;;;;;;;3.00;3.00;;;;;16.47;51.77;101356.84;5089795;27;45374;-66
2023/04/15 14:39:55;;;;;;;;;2.00;2.00;;;;;16.68;52.29;101357.38;5100168;27;45353;-67
2023/04/15 14:42:20;;;;;;;;;3.00;3.00;;;;;16.94;50.98;101369.31;5095286;27;45266;-68
2023/04/15 14:44:46;;;;;;;;;2.25;2.25;;;;;17.09;51.09;101373.81;5099919;27;45362;-67
2023/04/15 14:47:11;;;;;;;;;3.00;3.00;;;;;17.17;50.10;101376.91;5102578;27;45930;-67
2023/04/15 14:49:37;;;;;;;;;3.00;3.00;;;;;17.34;50.14;101373.13;5101711;27;45349;-67
2023/04/15 14:52:02;;;;;;;;;2.00;2.00;;;;;17.13;49.59;101287.75;5101033;27;47333;-67
2023/04/15 14:54:28;;;;;;;;;3.75;2.50;;;;;17.82;48.73;101355.50;5101257;27;45632;-66
2023/04/15 14:56:53;;;;;;;;;2.00;2.00;;;;;18.32;48.95;101370.22;5102224;27;45377;-67
2023/04/15 14:59:18;;;;;;;;;2.00;2.00;;;;;18.78;47.89;101367.97;5101605;27;45334;-68
2023/04/15 15:01:44;;;;;;;;;3.00;3.00;;;;;19.18;45.75;101360.56;5101447;27;48801;-68
2023/04/15 15:04:10;;;;;;;;;5.25;2.50;;;;;19.48;46.08;101357.50;5101479;27;45388;-68
2023/04/15 15:06:36;;;;;;;;;0.50;0.50;;;;;19.80;45.34;101376.88;5101600;27;45406;-67
2023/04/15 15:09:02;;;;;;;;;3.00;3.00;;;;;20.15;45.12;101375.09;5101798;27;45381;-67
2023/04/15 15:11:28;;;;;;;;;5.00;4.00;;;;;20.33;43.98;101381.84;5100489;27;46133;-68
2023/04/15 15:13:53;;;;;;;;;3.00;3.00;;;;;20.31;43.48;101375.69;5101816;27;45418;-67
2023/04/15 15:16:19;;;;;;;;;3.50;3.50;;;;;20.26;43.47;101368.81;5101991;27;45216;-67
2023/04/15 15:18:44;;;;;;;;;3.00;3.00;;;;;20.09;43.72;101363.78;5101810;27;45288;-68
2023/04/15 15:21:09;;;;;;;;;2.75;2.75;;;;;20.05;44.02;101378.63;5101570;27;45267;-69
2023/04/15 15:23:35;;;;;;;;;2.50;2.50;;;;;20.11;44.04;101378.16;5101644;27;45444;-67
2023/04/15 15:26:01;;;;;;;;;3.00;3.00;;;;;20.03;43.61;101395.94;5101955;27;45347;-66
2023/04/15 15:28:26;;;;;;;;;2.50;2.50;;;;;19.84;43.54;101401.00;5100246;27;46890;-67
2023/04/15 15:30:51;;;;;;;;;3.75;3.75;;;;;19.79;44.15;101411.38;5101527;27;45227;-68
2023/04/15 15:33:17;;;;;;;;;2.50;2.50;;;;;19.79;44.10;101408.66;5101401;27;45184;-67
2023/04/15 15:35:43;;;;;;;;;4.75;4.25;;;;;19.73;44.65;101400.97;5101312;27;45441;-69
2023/04/15 15:38:10;;;;;;;;;3.00;3.00;;;;;19.82;44.45;101415.75;5101141;27;45334;-72
2023/04/15 15:40:35;;;;;;;;;4.00;4.00;;;;;19.86;44.59;101418.09;5101493;27;46508;-67
2023/04/15 15:43:01;;;;;;;;;3.25;3.25;;;;;19.88;44.21;101413.44;5100715;27;55087;-67
2023/04/15 15:45:26;;;;;;;;;3.25;3.25;;;;;20.00;44.53;101400.75;5101305;27;45389;-68
2023/04/15 15:47:51;;;;;;;;;4.00;4.00;;;;;20.07;43.51;101409.34;5101223;27;45541;-69
2023/04/15 15:50:17;;;;;;;;;5.25;3.50;;;;;20.21;43.04;101401.84;5100992;27;46204;-68
2023/04/15 15:52:42;;;;;;;;;2.50;2.50;;;;;20.36;42.09;101408.88;5101249;27;45264;-68
2023/04/15 15:55:07;;;;;;;;;3.00;3.00;;;;;20.47;42.13;101410.81;5101372;27;45271;-66
2023/04/15 15:57:33;;;;;;;;;3.25;3.25;;;;;20.56;42.21;101410.09;5101080;27;45272;-67
2023/04/15 15:59:58;;;;;;;;;3.50;3.50;;;;;20.62;43.06;101412.34;5100851;27;46001;-67
2023/04/15 16:02:24;;;;;;;;;4.75;3.50;;;;;20.65;42.31;101420.28;5100784;27;45240;-67
2023/04/15 16:04:51;;;;;;;;;3.00;3.00;;;;;20.74;42.15;101426.88;5100867;27;45307;-68